Time;durP1;ratioP1;P1;durP2;ratioP2;P2;SDS_P1;SDS_P2;PMS_P1;PMS_P2;Temp;Humidity;BMP_temperature;BMP_pressure;BME280_temperature;BME280_humidity;BME280_pressure;Samples;Min_cycle;Max_cycle;Signal;HPM_P1;HPM_P2
2022/08/29 00:01:47;;;;;;;8.63;7.57;;;23.10;63.80;;;;;;4955036;29;20735;-46
2022/08/29 00:04:13;;;;;;;8.70;7.80;;;23.20;63.40;;;;;;4953792;29;20234;-46
2022/08/29 00:06:39;;;;;;;8.87;8.10;;;23.30;63.10;;;;;;4954538;29;20224;-46
2022/08/29 00:09:05;;;;;;;8.53;7.80;;;23.30;62.70;;;;;;4954876;29;20609;-46
2022/08/29 00:11:30;;;;;;;8.87;8.10;;;23.40;62.50;;;;;;4954308;29;20439;-47
2022/08/29 00:13:56;;;;;;;10.70;9.80;;;23.40;62.40;;;;;;4953894;28;20314;-47
2022/08/29 00:16:22;;;;;;;9.70;7.93;;;23.30;62.70;;;;;;4954092;29;20195;-46
2022/08/29 00:18:47;;;;;;;8.83;8.03;;;23.10;63.40;;;;;;4954658;29;20195;-45
2022/08/29 00:21:13;;;;;;;9.93;7.80;;;23.00;63.50;;;;;;4952270;29;20200;-46
2022/08/29 00:23:39;;;;;;;11.27;8.20;;;23.00;64.40;;;;;;4954192;29;20192;-50
2022/08/29 00:26:05;;;;;;;9.33;8.57;;;23.00;63.50;;;;;;4953523;29;20258;-47
2022/08/29 00:28:31;;;;;;;9.33;8.50;;;23.00;63.80;;;;;;4954431;29;20432;-46
2022/08/29 00:30:56;;;;;;;8.83;8.10;;;22.70;64.60;;;;;;4953675;29;20443;-46
2022/08/29 00:33:22;;;;;;;8.93;8.13;;;22.60;65.00;;;;;;4953856;29;20200;-45
2022/08/29 00:35:47;;;;;;;8.20;7.57;;;22.70;65.00;;;;;;4954106;29;20196;-48
2022/08/29 00:38:15;;;;;;;8.60;7.90;;;22.70;64.70;;;;;;4954368;29;20196;-46
2022/08/29 00:40:50;;;;;;;7.93;7.13;;;22.80;64.40;;;;;;4953339;29;20336;-46
2022/08/29 00:43:17;;;;;;;9.43;7.87;;;22.80;64.00;;;;;;4954039;29;20931;-47
2022/08/29 00:45:57;;;;;;;10.43;8.50;;;22.80;64.10;;;;;;4953209;29;20514;-45
2022/08/29 00:48:23;;;;;;;9.07;8.07;;;22.80;63.90;;;;;;4951446;28;20859;-46
2022/08/29 00:50:59;;;;;;;9.57;8.33;;;22.70;64.00;;;;;;4953333;29;20431;-47
2022/08/29 00:53:35;;;;;;;16.40;9.53;;;22.60;64.80;;;;;;4953531;29;20210;-45
2022/08/29 00:56:02;;;;;;;7.97;7.37;;;22.60;65.20;;;;;;4953325;29;20440;-46
2022/08/29 00:58:33;;;;;;;8.60;7.90;;;22.50;65.00;;;;;;4953402;29;20444;-46
2022/08/29 01:00:58;;;;;;;9.83;8.83;;;22.40;65.60;;;;;;4952889;28;20432;-48
2022/08/29 01:03:25;;;;;;;9.53;8.70;;;22.50;65.40;;;;;;4953293;29;20494;-45
2022/08/29 01:05:51;;;;;;;8.90;8.00;;;22.50;65.00;;;;;;4953231;29;20227;-46
2022/08/29 01:08:17;;;;;;;10.53;9.43;;;22.60;64.70;;;;;;4953561;29;20436;-46
2022/08/29 01:13:35;;;;;;;9.20;8.30;;;22.60;64.70;;;;;;4951601;29;20471;-46
2022/08/29 01:16:03;;;;;;;9.70;8.70;;;22.60;64.30;;;;;;4953018;28;20482;-46
2022/08/29 01:18:35;;;;;;;9.83;9.00;;;22.60;64.20;;;;;;4953504;29;20527;-46
2022/08/29 01:21:04;;;;;;;9.20;7.97;;;22.50;64.50;;;;;;4952646;29;20782;-46
2022/08/29 01:23:48;;;;;;;11.10;8.73;;;22.40;64.90;;;;;;4953163;29;20435;-46
2022/08/29 01:26:13;;;;;;;9.20;8.50;;;22.40;65.00;;;;;;4952685;29;20498;-47
2022/08/29 01:28:46;;;;;;;9.50;7.80;;;22.40;65.20;;;;;;4953188;29;20767;-47
2022/08/29 01:31:22;;;;;;;10.07;9.17;;;22.30;65.30;;;;;;4952594;29;20204;-46
2022/08/29 01:33:55;;;;;;;9.10;8.30;;;22.00;66.90;;;;;;4953077;29;20438;-45
2022/08/29 01:36:40;;;;;;;9.43;8.40;;;21.50;68.80;;;;;;4952915;29;20514;-46
2022/08/29 01:39:06;;;;;;;9.27;8.37;;;21.20;70.70;;;;;;4953250;29;20450;-47
2022/08/29 01:41:33;;;;;;;10.23;8.67;;;21.20;71.00;;;;;;4950898;29;20428;-45
2022/08/29 01:44:00;;;;;;;9.90;8.90;;;21.20;70.50;;;;;;4952644;29;20428;-45
2022/08/29 01:46:31;;;;;;;9.77;8.77;;;21.20;70.60;;;;;;4952586;29;20499;-46
2022/08/29 01:48:59;;;;;;;14.93;9.00;;;21.40;70.00;;;;;;4953143;29;20427;-46
2022/08/29 01:51:25;;;;;;;9.00;8.30;;;21.60;69.00;;;;;;4952292;29;20444;-46
2022/08/29 01:53:51;;;;;;;9.50;8.60;;;21.70;68.20;;;;;;4952711;29;20498;-46
2022/08/29 01:56:24;;;;;;;9.63;8.43;;;21.70;68.00;;;;;;4952626;29;20191;-46
2022/08/29 01:58:51;;;;;;;9.40;8.50;;;21.70;67.70;;;;;;4953207;29;20436;-46
2022/08/29 02:01:21;;;;;;;9.13;8.43;;;21.70;67.70;;;;;;4952183;29;20522;-46
2022/08/29 02:03:47;;;;;;;9.27;8.33;;;21.90;67.30;;;;;;4952563;29;20786;-46
2022/08/29 02:06:13;;;;;;;10.23;8.47;;;21.80;67.80;;;;;;4952126;29;20502;-47
2022/08/29 02:08:41;;;;;;;9.50;8.70;;;21.70;67.80;;;;;;4951283;29;20419;-47
2022/08/29 02:11:09;;;;;;;8.60;7.80;;;21.80;67.70;;;;;;4952314;29;20777;-47
2022/08/29 02:13:36;;;;;;;8.90;8.20;;;21.90;67.30;;;;;;4951285;29;20967;-46
2022/08/29 02:16:02;;;;;;;9.50;8.50;;;22.00;66.80;;;;;;4951950;28;20934;-48
2022/08/29 02:18:28;;;;;;;10.13;7.80;;;22.00;66.20;;;;;;4952651;29;20962;-47
2022/08/29 02:20:54;;;;;;;8.63;7.80;;;22.00;65.80;;;;;;4952201;29;20428;-46
2022/08/29 02:23:20;;;;;;;8.20;7.40;;;22.10;65.50;;;;;;4952185;29;20196;-46
2022/08/29 02:25:46;;;;;;;8.87;8.07;;;22.10;65.10;;;;;;4951946;29;20498;-46
2022/08/29 02:28:17;;;;;;;10.17;8.97;;;22.10;64.80;;;;;;4952650;29;20202;-47
2022/08/29 02:30:47;;;;;;;8.50;7.80;;;22.00;65.30;;;;;;4952105;29;20428;-47
2022/08/29 02:33:14;;;;;;;9.77;8.40;;;22.00;65.40;;;;;;4952047;29;20450;-46
2022/08/29 02:35:40;;;;;;;11.73;8.43;;;22.00;65.10;;;;;;4950330;29;20432;-46
2022/08/29 02:38:06;;;;;;;8.93;8.10;;;22.10;64.90;;;;;;4952427;29;20432;-45
2022/08/29 02:40:33;;;;;;;9.53;8.60;;;22.10;64.50;;;;;;4951717;29;20442;-46
2022/08/29 02:42:59;;;;;;;8.90;8.00;;;22.10;64.30;;;;;;4951953;29;20490;-46
2022/08/29 02:45:25;;;;;;;9.10;8.23;;;22.10;64.40;;;;;;4951800;29;20525;-46
2022/08/29 02:47:51;;;;;;;9.50;8.50;;;22.00;64.50;;;;;;4952514;29;20431;-46
2022/08/29 02:50:17;;;;;;;9.83;8.83;;;22.00;64.70;;;;;;4951921;29;20423;-46
2022/08/29 02:52:43;;;;;;;8.93;7.70;;;21.90;65.10;;;;;;4951941;29;20931;-46
2022/08/29 02:55:14;;;;;;;9.60;8.80;;;21.90;65.10;;;;;;4951620;29;20240;-46
2022/08/29 02:57:41;;;;;;;9.07;8.20;;;21.90;65.00;;;;;;4952309;29;20874;-46
2022/08/29 03:00:11;;;;;;;10.30;8.27;;;21.90;64.80;;;;;;4951772;29;20514;-46
2022/08/29 03:02:37;;;;;;;8.70;7.90;;;21.90;64.80;;;;;;4950345;29;20436;-45
2022/08/29 03:05:04;;;;;;;8.97;8.10;;;21.90;64.70;;;;;;4951858;29;20475;-46
2022/08/29 03:07:29;;;;;;;9.93;9.00;;;22.00;64.70;;;;;;4952156;29;20232;-45
2022/08/29 03:09:55;;;;;;;12.50;8.80;;;21.90;64.70;;;;;;4951359;29;20438;-45
2022/08/29 03:12:20;;;;;;;13.87;8.07;;;21.90;64.60;;;;;;4952098;29;20199;-47
2022/08/29 03:14:46;;;;;;;7.83;7.13;;;21.80;64.70;;;;;;4951367;28;20184;-46
2022/08/29 03:17:12;;;;;;;8.80;7.90;;;21.80;64.90;;;;;;4952306;29;20200;-46
2022/08/29 03:19:38;;;;;;;9.30;8.50;;;21.80;64.80;;;;;;4951577;29;20275;-46
2022/08/29 03:22:04;;;;;;;8.73;7.90;;;21.80;64.70;;;;;;4952241;29;20224;-48
2022/08/29 03:24:29;;;;;;;9.10;8.30;;;21.80;64.70;;;;;;4952669;28;20591;-46
2022/08/29 03:26:55;;;;;;;9.87;8.87;;;21.70;64.60;;;;;;4955411;29;20487;-46
2022/08/29 03:29:21;;;;;;;9.83;8.93;;;21.70;64.70;;;;;;4953457;29;20207;-46
2022/08/29 03:31:46;;;;;;;9.60;8.60;;;21.70;64.80;;;;;;4955617;29;20712;-45
2022/08/29 03:34:13;;;;;;;9.70;8.80;;;21.60;64.80;;;;;;4954517;29;20204;-46
2022/08/29 03:36:39;;;;;;;9.37;7.47;;;21.50;65.10;;;;;;4955475;29;20200;-46
2022/08/29 03:39:05;;;;;;;9.00;8.20;;;21.50;66.00;;;;;;4955100;29;20447;-45
2022/08/29 03:41:31;;;;;;;9.23;8.20;;;21.50;65.20;;;;;;4954819;29;20435;-46
2022/08/29 03:44:00;;;;;;;9.90;8.40;;;21.50;64.90;;;;;;4954731;29;20196;-46
2022/08/29 03:46:26;;;;;;;10.70;8.00;;;21.60;64.90;;;;;;4954441;29;20855;-47
2022/08/29 03:48:52;;;;;;;8.93;8.17;;;21.50;64.90;;;;;;4954809;29;20928;-46
2022/08/29 03:51:18;;;;;;;11.00;8.67;;;21.50;65.10;;;;;;4954727;29;20475;-46
2022/08/29 03:53:44;;;;;;;8.93;8.03;;;21.50;65.10;;;;;;4954710;29;20196;-46
2022/08/29 03:56:10;;;;;;;8.40;7.70;;;21.50;65.00;;;;;;4952848;29;20942;-46
2022/08/29 03:58:36;;;;;;;8.33;7.50;;;21.50;64.90;;;;;;4954634;29;20439;-46
2022/08/29 04:01:02;;;;;;;8.87;8.07;;;21.50;64.70;;;;;;4954563;29;20802;-45
2022/08/29 04:03:28;;;;;;;8.23;7.53;;;21.50;64.60;;;;;;4954872;29;20457;-46
2022/08/29 04:05:54;;;;;;;9.33;8.43;;;21.50;64.40;;;;;;4954310;29;20242;-45
2022/08/29 04:08:19;;;;;;;9.60;8.70;;;21.50;64.30;;;;;;4954589;29;20196;-46
2022/08/29 04:10:45;;;;;;;8.87;8.07;;;21.50;64.60;;;;;;4954183;29;20287;-45
2022/08/29 04:13:11;;;;;;;8.73;7.83;;;21.50;64.60;;;;;;4954390;29;20244;-48
2022/08/29 04:15:39;;;;;;;10.23;8.47;;;21.50;64.40;;;;;;4954086;28;20584;-47
2022/08/29 04:18:06;;;;;;;8.93;8.20;;;21.40;64.30;;;;;;4954800;29;20199;-47
2022/08/29 04:20:37;;;;;;;10.20;9.30;;;21.40;64.40;;;;;;4954004;29;20915;-45
2022/08/29 04:23:03;;;;;;;9.63;8.70;;;21.40;64.40;;;;;;4952734;29;20442;-45
2022/08/29 04:25:35;;;;;;;10.20;8.73;;;21.40;64.40;;;;;;4953835;29;20479;-50
2022/08/29 04:28:05;;;;;;;9.73;7.97;;;21.30;64.30;;;;;;4954334;29;20957;-47
2022/08/29 04:30:31;;;;;;;10.03;9.10;;;21.30;65.70;;;;;;4953719;29;20931;-45
2022/08/29 04:32:57;;;;;;;10.10;8.60;;;21.20;65.10;;;;;;4953905;29;20446;-51
2022/08/29 04:35:23;;;;;;;8.87;7.97;;;21.10;65.30;;;;;;4952821;28;20199;-48
2022/08/29 04:37:48;;;;;;;8.90;8.17;;;21.10;65.50;;;;;;4954488;29;20211;-45
2022/08/29 04:40:16;;;;;;;9.30;8.50;;;21.10;65.60;;;;;;4953630;29;20196;-45
2022/08/29 04:42:43;;;;;;;8.73;7.83;;;21.00;65.60;;;;;;4953683;29;20671;-45
2022/08/29 04:45:11;;;;;;;9.30;8.37;;;21.10;65.60;;;;;;4953254;29;20522;-46
2022/08/29 04:47:37;;;;;;;9.27;8.13;;;21.00;65.40;;;;;;4954028;29;20940;-46
2022/08/29 04:50:05;;;;;;;8.70;8.00;;;21.10;65.50;;;;;;4951828;29;20784;-49
2022/08/29 04:52:30;;;;;;;10.10;8.40;;;21.10;65.30;;;;;;4953593;29;20447;-45
2022/08/29 04:54:57;;;;;;;9.20;8.30;;;21.00;65.30;;;;;;4953287;29;20439;-45
2022/08/29 04:57:23;;;;;;;10.67;8.90;;;21.00;65.40;;;;;;4953976;29;20280;-47
2022/08/29 05:00:00;;;;;;;8.93;8.10;;;21.00;65.60;;;;;;4953334;29;20459;-46
2022/08/29 05:02:26;;;;;;;11.13;8.53;;;21.00;66.00;;;;;;4953400;29;20803;-46
2022/08/29 05:04:53;;;;;;;10.13;8.13;;;21.00;65.70;;;;;;4953255;29;20424;-47
2022/08/29 05:07:20;;;;;;;10.73;8.17;;;20.90;65.90;;;;;;4953706;29;20502;-49
2022/08/29 05:09:57;;;;;;;9.43;8.50;;;20.90;66.10;;;;;;4952952;29;20538;-48
2022/08/29 05:12:22;;;;;;;9.90;8.90;;;20.90;66.00;;;;;;4952903;29;20441;-46
2022/08/29 05:14:48;;;;;;;9.60;8.50;;;20.80;66.30;;;;;;4953169;28;20915;-48
2022/08/29 05:17:14;;;;;;;10.33;9.37;;;20.90;66.20;;;;;;4951848;29;20204;-49
2022/08/29 05:19:42;;;;;;;10.27;9.13;;;21.00;66.20;;;;;;4953095;29;20568;-46
2022/08/29 05:22:09;;;;;;;9.93;8.77;;;21.00;66.00;;;;;;4953169;29;20207;-45
2022/08/29 05:24:36;;;;;;;8.33;7.53;;;21.10;65.90;;;;;;4952540;29;20459;-46
2022/08/29 05:27:07;;;;;;;9.00;8.20;;;21.00;66.00;;;;;;4953314;29;20526;-46
2022/08/29 05:29:33;;;;;;;9.20;8.30;;;21.00;66.40;;;;;;4952800;29;20779;-46
2022/08/29 05:31:58;;;;;;;9.87;8.50;;;20.70;67.40;;;;;;4952856;29;20431;-46
2022/08/29 05:34:24;;;;;;;10.33;9.33;;;20.80;67.70;;;;;;4952313;29;20199;-49
2022/08/29 05:36:49;;;;;;;8.87;8.03;;;20.80;67.70;;;;;;4953214;29;20203;-46
2022/08/29 05:39:15;;;;;;;11.47;9.17;;;20.90;67.60;;;;;;4952673;29;20214;-46
2022/08/29 05:41:40;;;;;;;9.63;8.73;;;21.00;67.20;;;;;;4952971;29;20196;-47
2022/08/29 05:44:06;;;;;;;10.90;9.90;;;21.00;66.90;;;;;;4951063;29;20606;-46
2022/08/29 05:46:32;;;;;;;10.97;8.93;;;20.90;67.40;;;;;;4952562;28;20237;-50
2022/08/29 05:48:58;;;;;;;10.70;9.20;;;21.00;67.70;;;;;;4952370;29;20431;-45
2022/08/29 05:51:23;;;;;;;12.03;8.73;;;20.90;68.10;;;;;;4952270;29;20200;-46
2022/08/29 05:53:49;;;;;;;10.47;9.57;;;20.80;68.20;;;;;;4952622;29;20243;-47
2022/08/29 05:56:23;;;;;;;10.50;9.00;;;20.60;68.90;;;;;;4952409;29;20624;-45
2022/08/29 05:58:49;;;;;;;9.70;8.90;;;20.70;69.40;;;;;;4952901;29;21021;-50
2022/08/29 06:01:28;;;;;;;9.27;8.47;;;20.80;69.10;;;;;;4952569;29;20424;-46
2022/08/29 06:03:55;;;;;;;14.13;9.73;;;21.10;68.50;;;;;;4952310;29;20203;-46
2022/08/29 06:06:22;;;;;;;9.80;8.63;;;21.00;68.20;;;;;;4952138;29;20493;-45
2022/08/29 06:08:48;;;;;;;9.80;9.00;;;20.90;68.60;;;;;;4952811;29;20870;-46
2022/08/29 06:11:19;;;;;;;12.57;10.03;;;20.80;69.20;;;;;;4950598;29;20527;-46
2022/08/29 06:13:45;;;;;;;9.70;8.77;;;20.90;70.00;;;;;;4952439;29;20467;-47
2022/08/29 06:16:16;;;;;;;11.50;9.03;;;21.10;69.60;;;;;;4951938;28;21017;-45
2022/08/29 06:18:42;;;;;;;10.03;8.73;;;21.40;69.10;;;;;;4952570;29;20195;-50
2022/08/29 06:21:10;;;;;;;9.67;8.63;;;21.70;68.00;;;;;;4951975;29;20777;-46
2022/08/29 06:23:36;;;;;;;9.80;8.80;;;21.90;67.20;;;;;;4952285;29;20827;-48
2022/08/29 06:26:02;;;;;;;9.33;8.43;;;22.10;66.50;;;;;;4952019;29;20498;-45
2022/08/29 06:28:30;;;;;;;10.33;9.10;;;22.30;65.70;;;;;;4952309;29;20427;-47
2022/08/29 06:30:56;;;;;;;8.33;7.67;;;22.50;64.70;;;;;;4934504;29;20490;-46
2022/08/29 06:33:22;;;;;;;9.93;8.90;;;22.70;64.20;;;;;;4952388;29;20474;-46
2022/08/29 06:35:47;;;;;;;9.80;8.80;;;22.80;63.70;;;;;;4952009;29;20533;-46
2022/08/29 06:38:13;;;;;;;9.40;8.47;;;23.00;62.50;;;;;;4951022;29;20475;-46
2022/08/29 06:40:39;;;;;;;9.30;8.43;;;23.10;62.20;;;;;;4951788;29;20199;-45
2022/08/29 06:43:04;;;;;;;9.60;8.70;;;23.30;61.60;;;;;;4952261;29;20226;-46
2022/08/29 06:45:30;;;;;;;8.97;8.17;;;23.50;60.90;;;;;;4952020;29;20288;-46
2022/08/29 06:47:55;;;;;;;9.10;8.20;;;23.60;60.40;;;;;;4952346;29;20219;-47
2022/08/29 06:50:21;;;;;;;9.67;8.70;;;23.80;59.70;;;;;;4951613;29;20637;-45
2022/08/29 06:52:47;;;;;;;9.33;8.53;;;23.90;59.50;;;;;;4952029;29;20188;-46
2022/08/29 06:55:13;;;;;;;8.37;7.50;;;24.10;59.00;;;;;;4951671;29;20199;-47
2022/08/29 06:57:44;;;;;;;9.50;8.60;;;24.20;58.50;;;;;;4952334;29;20196;-46
2022/08/29 07:00:13;;;;;;;8.63;7.93;;;24.40;57.90;;;;;;4954485;28;20447;-48
2022/08/29 07:02:39;;;;;;;9.73;8.80;;;24.60;57.20;;;;;;4955618;29;20470;-45
2022/08/29 07:05:06;;;;;;;9.20;8.40;;;24.70;57.30;;;;;;4953598;29;20470;-46
2022/08/29 07:07:32;;;;;;;9.77;8.90;;;24.70;57.60;;;;;;4955480;29;20493;-46
2022/08/29 07:09:59;;;;;;;9.47;8.33;;;24.90;57.30;;;;;;4955226;29;20432;-45
2022/08/29 07:12:24;;;;;;;9.40;8.60;;;25.10;57.40;;;;;;4955222;29;20427;-46
2022/08/29 07:14:50;;;;;;;9.43;8.53;;;25.30;56.60;;;;;;4955246;28;21266;-46
2022/08/29 07:17:15;;;;;;;10.10;9.13;;;25.40;56.30;;;;;;4955486;29;20196;-47
2022/08/29 07:19:41;;;;;;;9.17;8.37;;;25.60;55.60;;;;;;4954967;29;20196;-47
2022/08/29 07:22:07;;;;;;;9.20;8.40;;;25.60;54.80;;;;;;4955361;29;20256;-45
2022/08/29 07:24:33;;;;;;;9.47;8.40;;;25.50;55.20;;;;;;4955130;29;20200;-46
2022/08/29 07:26:59;;;;;;;10.57;8.30;;;25.80;54.70;;;;;;4955356;29;20227;-46
2022/08/29 07:29:25;;;;;;;12.00;8.03;;;25.90;54.10;;;;;;4954812;29;20784;-46
2022/08/29 07:31:52;;;;;;;10.20;8.70;;;26.10;53.90;;;;;;4953877;29;20439;-46
2022/08/29 07:34:20;;;;;;;9.77;7.80;;;26.20;53.20;;;;;;4954631;29;20439;-46
2022/08/29 07:36:46;;;;;;;10.20;8.17;;;26.30;53.20;;;;;;4955327;29;20447;-46
2022/08/29 07:39:15;;;;;;;13.43;8.63;;;26.40;52.90;;;;;;4955122;29;20453;-48
2022/08/29 07:41:42;;;;;;;8.00;7.20;;;26.30;53.30;;;;;;4955270;29;20207;-46
2022/08/29 07:44:09;;;;;;;8.80;8.00;;;26.40;53.10;;;;;;4954641;29;20440;-47
2022/08/29 07:46:35;;;;;;;8.53;7.77;;;26.60;52.90;;;;;;4954800;29;20514;-46
2022/08/29 07:49:01;;;;;;;8.80;7.93;;;26.80;52.30;;;;;;4955041;29;20871;-46
2022/08/29 07:51:27;;;;;;;8.47;7.50;;;26.90;52.20;;;;;;4954621;29;20427;-46
2022/08/29 07:53:53;;;;;;;9.73;7.83;;;27.10;51.80;;;;;;4954553;29;20428;-46
2022/08/29 07:56:23;;;;;;;7.70;6.87;;;27.20;51.00;;;;;;4954704;29;20323;-47
2022/08/29 07:58:49;;;;;;;8.50;7.80;;;27.30;51.00;;;;;;4953272;29;20446;-46
2022/08/29 08:01:15;;;;;;;7.97;7.37;;;27.40;51.50;;;;;;4954481;29;20439;-46
2022/08/29 08:03:41;;;;;;;9.60;8.80;;;27.60;52.10;;;;;;4954585;29;20191;-47
2022/08/29 08:06:08;;;;;;;10.00;8.00;;;27.70;51.70;;;;;;4953929;29;20271;-49
2022/08/29 08:08:34;;;;;;;8.80;8.00;;;27.80;51.40;;;;;;4954806;29;20430;-45
2022/08/29 08:11:02;;;;;;;11.90;8.70;;;27.90;50.50;;;;;;4953149;28;20424;-46
2022/08/29 08:13:28;;;;;;;9.03;7.63;;;28.00;50.50;;;;;;4953952;29;20243;-47
2022/08/29 08:15:54;;;;;;;11.10;7.53;;;28.10;50.00;;;;;;4953813;28;20518;-50
2022/08/29 08:18:21;;;;;;;8.83;8.03;;;28.10;49.90;;;;;;4954832;29;20263;-46
2022/08/29 08:20:47;;;;;;;11.70;7.03;;;28.20;49.90;;;;;;4953831;29;20443;-46
2022/08/29 08:23:16;;;;;;;8.50;7.70;;;28.30;49.70;;;;;;4954136;29;20440;-48
2022/08/29 08:25:43;;;;;;;9.20;8.30;;;28.30;50.00;;;;;;4952108;29;20963;-47
2022/08/29 08:28:11;;;;;;;7.93;7.23;;;28.40;49.40;;;;;;4954564;29;20434;-46
2022/08/29 08:30:37;;;;;;;8.03;7.33;;;28.50;49.20;;;;;;4953989;29;20855;-46
2022/08/29 08:33:03;;;;;;;8.37;7.57;;;28.60;48.80;;;;;;4953937;29;20860;-46
2022/08/29 08:35:32;;;;;;;8.30;7.57;;;28.60;48.80;;;;;;4953717;29;20519;-50
2022/08/29 08:37:58;;;;;;;8.83;7.83;;;28.70;48.70;;;;;;4954295;29;20470;-47
2022/08/29 08:40:26;;;;;;;9.77;7.40;;;28.80;48.40;;;;;;4953589;29;20431;-47
2022/08/29 08:42:59;;;;;;;8.73;7.60;;;28.90;48.00;;;;;;4954000;29;20239;-48
2022/08/29 08:45:36;;;;;;;7.37;6.67;;;29.00;47.70;;;;;;4953204;29;20861;-47
2022/08/29 08:48:17;;;;;;;8.03;7.23;;;29.10;47.50;;;;;;4954031;29;20440;-46
2022/08/29 08:51:06;;;;;;;10.97;7.93;;;29.30;48.20;;;;;;4951890;29;20439;-51
2022/08/29 08:53:33;;;;;;;8.93;8.03;;;29.40;47.20;;;;;;4953513;29;20785;-47
2022/08/29 08:56:06;;;;;;;7.63;6.93;;;29.60;46.80;;;;;;4953339;29;20440;-46
2022/08/29 08:58:41;;;;;;;7.60;7.00;;;29.60;47.10;;;;;;4953958;29;20432;-46
2022/08/29 09:01:21;;;;;;;7.37;6.57;;;29.70;46.30;;;;;;4953321;29;20487;-47
2022/08/29 09:04:10;;;;;;;8.20;7.40;;;29.90;46.50;;;;;;4953278;29;20452;-47
2022/08/29 09:07:03;;;;;;;7.70;6.90;;;30.00;46.60;;;;;;4952938;29;20583;-47
2022/08/29 09:09:43;;;;;;;9.37;8.57;;;30.10;46.50;;;;;;4951741;28;20897;-46
2022/08/29 09:12:34;;;;;;;7.37;6.07;;;30.30;46.30;;;;;;4950764;28;20447;-47
2022/08/29 09:15:11;;;;;;;7.50;6.33;;;30.30;46.00;;;;;;4949796;28;20460;-49
2022/08/29 09:18:06;;;;;;;12.63;7.10;;;30.30;46.00;;;;;;4946205;28;21028;-46
2022/08/29 09:20:35;;;;;;;7.70;7.03;;;30.60;46.30;;;;;;4950257;28;20461;-46
2022/08/29 09:23:06;;;;;;;7.67;6.87;;;30.80;45.60;;;;;;4951919;28;20862;-45
2022/08/29 09:25:35;;;;;;;8.53;7.50;;;31.00;45.20;;;;;;4948724;28;20484;-46
2022/08/29 09:28:03;;;;;;;7.73;6.93;;;31.20;44.30;;;;;;4949757;28;20443;-46
2022/08/29 09:30:32;;;;;;;7.87;7.13;;;31.10;44.60;;;;;;4949204;28;20463;-46
2022/08/29 09:33:03;;;;;;;8.30;7.60;;;31.30;44.70;;;;;;4948400;28;20930;-45
2022/08/29 09:35:40;;;;;;;7.37;6.60;;;31.40;44.50;;;;;;4952390;28;20439;-47
2022/08/29 09:38:16;;;;;;;8.83;7.93;;;31.50;44.40;;;;;;4946895;28;20939;-45
2022/08/29 09:40:58;;;;;;;8.30;7.50;;;31.60;44.00;;;;;;4949505;28;20454;-46
2022/08/29 09:43:39;;;;;;;9.00;7.47;;;31.80;43.70;;;;;;4944162;28;20451;-46
2022/08/29 09:46:10;;;;;;;9.90;7.33;;;31.80;42.90;;;;;;4938723;28;20482;-46
2022/08/29 09:48:56;;;;;;;6.90;6.20;;;31.70;42.90;;;;;;4948600;28;20503;-46
2022/08/29 09:51:23;;;;;;;7.93;7.17;;;31.90;43.80;;;;;;4939183;28;20443;-46
2022/08/29 09:53:51;;;;;;;7.47;6.87;;;32.00;43.40;;;;;;4952503;29;20439;-46
2022/08/29 09:56:22;;;;;;;8.27;7.37;;;32.20;43.50;;;;;;4951139;28;20523;-46
2022/08/29 09:58:59;;;;;;;9.27;7.50;;;32.40;42.40;;;;;;4946363;28;21014;-46
2022/08/29 10:01:25;;;;;;;8.20;7.47;;;32.50;41.50;;;;;;4951561;28;20451;-47
2022/08/29 10:04:01;;;;;;;8.50;7.70;;;32.50;41.30;;;;;;4948981;28;20498;-46
2022/08/29 10:06:31;;;;;;;7.87;6.20;;;32.60;41.60;;;;;;4947372;28;20486;-46
2022/08/29 10:09:11;;;;;;;7.27;6.57;;;32.60;41.20;;;;;;4951056;28;20475;-47
2022/08/29 10:11:44;;;;;;;6.70;5.97;;;32.80;40.40;;;;;;4949404;28;20936;-45
2022/08/29 10:14:29;;;;;;;8.47;6.33;;;32.90;40.30;;;;;;4944350;28;20502;-50
2022/08/29 10:18:19;;;;;;;6.60;6.00;;;33.10;39.50;;;;;;4946520;28;20439;-48
2022/08/29 10:19:48;;;;;;;5.70;5.20;;;33.30;39.60;;;;;;4949476;28;20464;-46
2022/08/29 10:22:37;;;;;;;6.40;5.80;;;33.50;39.10;;;;;;4947777;28;20451;-46
2022/08/29 10:25:16;;;;;;;6.47;5.87;;;33.70;37.80;;;;;;4947204;28;20520;-46
2022/08/29 10:27:42;;;;;;;5.63;5.13;;;33.70;37.30;;;;;;4947934;28;20493;-46
2022/08/29 10:30:13;;;;;;;5.50;4.87;;;33.70;37.20;;;;;;4949152;28;20879;-47
2022/08/29 10:33:20;;;;;;;5.80;5.33;;;33.90;38.00;;;;;;4948307;28;20459;-50
2022/08/29 10:36:00;;;;;;;8.47;4.63;;;34.10;37.00;;;;;;4953063;28;20451;-46
2022/08/29 10:38:32;;;;;;;5.87;4.90;;;34.00;36.00;;;;;;4955526;28;20453;-46
2022/08/29 10:41:04;;;;;;;5.53;5.03;;;34.10;36.60;;;;;;4951553;28;20467;-47
2022/08/29 10:43:40;;;;;;;5.00;4.50;;;34.00;36.30;;;;;;4947959;28;20455;-46
2022/08/29 10:46:21;;;;;;;5.43;4.93;;;34.10;36.20;;;;;;4953822;28;20501;-49
2022/08/29 10:49:27;;;;;;;7.40;5.10;;;34.20;35.90;;;;;;4951709;28;20458;-47
2022/08/29 10:52:29;;;;;;;5.50;4.60;;;34.30;35.60;;;;;;4942486;28;20482;-49
2022/08/29 10:55:21;;;;;;;7.77;4.67;;;34.30;35.10;;;;;;4949198;28;20443;-47
2022/08/29 10:58:26;;;;;;;5.77;5.20;;;34.40;36.10;;;;;;4927977;28;21078;-49
2022/08/29 11:01:22;;;;;;;6.03;4.57;;;34.60;34.90;;;;;;4953695;28;20478;-52
2022/08/29 11:04:36;;;;;;;5.27;4.77;;;34.60;35.20;;;;;;4950013;28;20451;-47
2022/08/29 11:07:05;;;;;;;5.60;5.00;;;34.70;35.00;;;;;;4927925;29;20495;-49
2022/08/29 11:09:44;;;;;;;6.23;5.70;;;34.70;35.30;;;;;;4952675;28;20447;-47
2022/08/29 11:12:24;;;;;;;6.30;5.73;;;34.70;34.50;;;;;;4950707;28;20586;-47
2022/08/29 11:15:03;;;;;;;5.80;5.33;;;34.80;34.00;;;;;;4953057;28;20470;-46
2022/08/29 11:17:39;;;;;;;7.30;6.13;;;34.80;33.70;;;;;;4952746;28;20486;-46
2022/08/29 11:20:10;;;;;;;7.90;5.67;;;34.80;34.00;;;;;;4950022;28;20439;-46
2022/08/29 11:22:44;;;;;;;5.40;5.00;;;35.00;33.60;;;;;;4949820;28;20451;-51
2022/08/29 11:25:17;;;;;;;5.97;4.87;;;35.20;33.80;;;;;;4949136;28;20478;-47
2022/08/29 11:28:26;;;;;;;5.57;5.00;;;35.40;33.10;;;;;;4951905;28;20501;-47
2022/08/29 11:31:14;;;;;;;5.40;5.00;;;35.40;32.00;;;;;;4951402;28;20486;-46
2022/08/29 11:33:45;;;;;;;5.77;5.27;;;35.40;32.30;;;;;;4951762;28;20550;-51
2022/08/29 11:36:39;;;;;;;6.17;5.67;;;35.50;32.00;;;;;;4947954;28;20538;-46
2022/08/29 11:39:27;;;;;;;5.43;4.90;;;35.50;32.60;;;;;;4934535;28;20956;-46
2022/08/29 11:41:57;;;;;;;5.40;4.90;;;35.40;32.60;;;;;;4950220;28;20456;-49
2022/08/29 11:44:32;;;;;;;5.70;5.17;;;35.40;31.70;;;;;;4952370;28;20785;-47
2022/08/29 11:46:58;;;;;;;6.00;5.50;;;35.50;31.90;;;;;;4951599;28;20494;-47
2022/08/29 11:49:32;;;;;;;5.30;4.77;;;35.40;31.70;;;;;;4948254;28;20451;-50
2022/08/29 11:52:24;;;;;;;4.40;4.10;;;35.40;31.70;;;;;;4949474;28;20536;-46
2022/08/29 11:54:52;;;;;;;5.40;4.83;;;35.60;31.20;;;;;;4942681;28;20801;-49
2022/08/29 11:57:18;;;;;;;4.87;4.47;;;35.60;31.20;;;;;;4954457;29;20440;-47
2022/08/29 12:00:05;;;;;;;5.13;4.73;;;35.60;31.10;;;;;;4953375;28;20514;-51
2022/08/29 12:02:30;;;;;;;4.97;4.57;;;35.80;30.30;;;;;;4949858;28;20196;-47
2022/08/29 12:05:17;;;;;;;5.17;4.77;;;35.90;30.30;;;;;;4948899;28;20447;-47
2022/08/29 12:08:11;;;;;;;5.03;4.73;;;35.90;30.40;;;;;;4949871;28;20279;-48
2022/08/29 12:10:54;;;;;;;4.90;4.50;;;35.80;32.00;;;;;;4945362;28;20472;-50
2022/08/29 12:13:45;;;;;;;4.97;4.57;;;36.00;30.80;;;;;;4952609;28;20479;-47
2022/08/29 12:16:33;;;;;;;5.10;4.70;;;36.10;30.80;;;;;;4946894;28;20477;-48
2022/08/29 12:18:58;;;;;;;5.17;4.77;;;36.30;30.00;;;;;;4947048;28;20456;-48
2022/08/29 12:21:44;;;;;;;5.10;4.70;;;36.30;30.40;;;;;;4947615;28;20951;-47
2022/08/29 12:24:30;;;;;;;5.40;4.87;;;36.50;30.90;;;;;;4951637;28;20192;-50
2022/08/29 12:26:57;;;;;;;6.07;4.60;;;36.50;29.80;;;;;;4952206;28;20490;-51
2022/08/29 12:29:32;;;;;;;5.00;4.60;;;36.30;29.90;;;;;;4949625;28;20443;-48
2022/08/29 12:32:18;;;;;;;5.23;4.80;;;35.70;30.50;;;;;;4943591;28;21021;-50
2022/08/29 12:35:07;;;;;;;5.20;4.70;;;35.50;30.70;;;;;;4947318;28;20462;-51
2022/08/29 12:38:09;;;;;;;6.60;4.47;;;35.50;30.70;;;;;;4952123;28;20455;-47
2022/08/29 12:40:59;;;;;;;5.97;5.13;;;35.50;31.40;;;;;;4951003;28;20447;-47
2022/08/29 12:43:41;;;;;;;4.77;4.37;;;35.20;32.20;;;;;;4949081;28;20481;-46
2022/08/29 12:46:26;;;;;;;5.00;4.50;;;35.10;31.60;;;;;;4950577;28;20849;-51
2022/08/29 12:49:18;;;;;;;5.83;5.10;;;35.00;32.20;;;;;;4948890;28;20539;-46
2022/08/29 12:51:49;;;;;;;5.77;5.30;;;34.70;32.30;;;;;;4951394;28;20469;-47
2022/08/29 12:54:27;;;;;;;6.00;5.40;;;34.40;32.50;;;;;;4947959;28;20534;-47
2022/08/29 12:56:53;;;;;;;5.43;4.87;;;34.40;33.50;;;;;;4948838;28;20454;-49
2022/08/29 12:59:19;;;;;;;4.57;4.23;;;34.30;33.50;;;;;;4949770;28;20443;-50
2022/08/29 13:01:50;;;;;;;5.37;4.87;;;34.30;33.00;;;;;;4947802;28;20199;-51
2022/08/29 13:04:23;;;;;;;4.57;4.27;;;34.40;32.80;;;;;;4943763;28;20888;-49
2022/08/29 13:06:59;;;;;;;5.43;5.00;;;34.20;32.40;;;;;;4952822;29;20529;-48
2022/08/29 13:09:31;;;;;;;4.77;4.27;;;34.20;32.40;;;;;;4949045;28;20457;-47